Central Sonoma County Latest

26 Stations

15 Minute Data | America/Los_Angeles
as of 9/29/20 7:45 AM PDT
Station Date Time Temp (°F) RH (%) Dew Pt (°F) Wind Spd (mph) Wind Dir (°) Wind Gust (mph) Latest Rain (In) Daily Rain (In) Daily Min Temp (°F) Daily Max Temp (°F)
Healdsburg-South (Sodini) 9/29/20 0745 51.4   14.3 89   53 48.3   10.1 0.0 N | 0 0.0   2.1 0.00 0.00 50.2   14.6 56.3   32.9
Windsor-NW (Ranch 8) 9/29/20 0745 53.4   12.9 86   46 49.3   8.4 0.8 E | 88 2.0   3.4 0.00 0.00 52.8   13.2 60.4   28.9
Windsor-East (Ranch 16) 9/29/20 0745 50.1   19.4 88   60 46.8   11.1 0.0 S | 174 0.5   2.7 0.00 0.00 49.2   13.9 53.4   21.3
Mark West-North (Ranch 14) 9/29/20 0745 51.6   16.1 87   51 47.9   8.1 0.0 WSW | 244 0.4   2.4 0.00 0.00 49.6   12.3 56.1   13.0
Windsor-SE (Silk Rd) 9/29/20 0745 47.5   11.8 98   34 46.8   0.0 0.0 ESE | 107 0.7   0.9 0.00 0.00 46.5   10.9 50.1   12.3
Fulton-NW (Ranch 5) 9/29/20 0745 50.0   14.9 93   41 48.0   1.4 0.2 S | 175 0.9   1.9 0.00 0.00 48.7   12.7 53.8   13.8
Windsor-South (Laughlin Rd) 9/29/20 0745 50.9   23.4 - - - - - 0.00 0.00 49.2   14.0 55.6   20.0
Fulton-SE (Barnes Rd) 9/29/20 0745 51.1   22.0 92   63 48.7   10.0 0.7 W | 261 1.4   3.6 0.00 0.00 49.5   16.3 57.0   26.1
Fulton-SW (Ranch 21) 9/25/20 0015 55.1   3.0 82   8 49.8   5.6 0.5 SE | 140 1.9   0.7 0.00 0.00 52.4   5.5 86.7   0.7
Santa Rosa-NW (Goldfields) 9/29/20 0745 50.8   16.5 92   50 48.6   5.5 0.4 NW | 321 1.2   3.6 0.00 0.00 50.0   13.9 56.3   17.9
NW Santa Rosa (Piner Road) 9/29/20 0745 47.6   12.8 93   28 45.7   3.0 0.0 N | 0 0.0   2.6 0.00 0.00 46.7   13.0 52.5   15.2
River Rd South (Denner Ranch) 9/29/20 0745 48.3   17.8 96   55 47.1   6.0 1.3 NE | 46 2.8   0.7 0.00 0.00 47.1   13.7 53.6   16.7
West Santa Rosa (Hawk's Roost) 9/29/20 0745 48.7   13.7 96   40 47.8   1.2 0.0 N | 0 0.0   2.5 0.00 0.00 48.1   12.9 53.7   13.2
Guerneville Rd West (Balletto) 9/29/20 0745 47.1   10.5 93   18 45.2   4.5 0.0 N | 0 0.0   2.1 0.00 0.00 46.0   11.3 49.8   15.3
Guerneville Rd East (Rich Ranch) 9/29/20 0745 49.1   11.6 92   29 46.8   1.2 - - - - - 47.2   13.3 52.0   16.4
Occidental Rd (Sebastopol) 9/29/20 0745 49.0   10.9 100   38 49.0   2.4 0.1 WNW | 296 1.1   2.0 0.00 0.00 47.0   12.6 52.5   13.0
Lower Westside Rd (Ranch 12) 9/29/20 0745 48.6   10.5 91   29 46.2   0.1 0.1 W | 276 0.8   0.2 0.00 0.00 47.9   10.9 52.5   17.4
Guerneville (Laughlin Rd) 9/29/20 0745 46.0   5.0 93   13 44.2   0.9 0.0 N | 0 0.0   1.3 0.00 0.00 45.6   5.2 49.8   10.2
Korbel (Winery) 9/29/20 0745 49.6   4.9 98   13 48.9   1.0 0.2 N | 353 0.9   0.4 0.00 0.00 49.0   5.0 52.0   11.3
Forestville (Shone Farms) 9/29/20 0745 53.3   25.1 90   74 50.6   22.1 0.0 SW | 218 1.0   6.5 0.00 0.00 50.2   19.1 58.6   29.7
Forestville-NE (Ranch 30) 9/29/20 0745 49.1   10.1 96   32 47.9   1.3 0.0 N | 0 0.0   3.2 0.00 0.00 47.3   10.9 53.3   12.3
Graton-West (Dutton Ranch) 9/29/20 0745 48.2   12.1 100   44 48.2   3.8 0.0 N | 0 0.0   2.1 0.00 0.00 46.5   11.9 51.4   12.9
Graton-South (Mill Station Rd) 9/29/20 0745 48.4   7.6 97   20 47.7   1.3 0.7 NNW | 340 2.0   0.7 0.00 0.00 46.7   8.9 57.7   7.1
Sexton Valley (Jacqueline's Blk) 9/29/20 0745 52.8   4.3 96   26 51.7   4.4 0.8 WSW | 249 3.5   1.2 0.00 0.00 48.8   7.7 58.4   5.6
Sebastopol Hills (Burnside Rd) 9/29/20 0745 54.5   23.4 94   76 52.8   22.2 3.4 WSW | 257 6.4   1.5 0.00 0.00 53.8   21.5 58.1   24.0
Seaview/Fort Ross (Hirsch) 9/29/20 0745 77.8   2.2 19   7 32.3   8.6 3.4 SE | 137 4.9   2.5 0.00 0.00 76.1   2.4 83.8   1.5
Max     77.8 100 52.8 3.4 - 6.4 0.00 0.00 76.1 83.8
Avg     51.0 90 47.4 0.5 - 1.3 0.00 - - -
Min     46.0 19 32.3 0.0 - 0.0 0.00 0.00 45.6 49.8